sensor_id;sensor_type;location;lat;lon;timestamp;P1;durP1;ratioP1;P2;durP2;ratioP2
48813;SDS011;34634;44.108;3.074;2022-10-16T00:01:04;7.45;;;3.90;;
48813;SDS011;34634;44.108;3.074;2022-10-16T00:03:30;6.90;;;3.50;;
48813;SDS011;34634;44.108;3.074;2022-10-16T00:05:58;6.75;;;3.55;;
48813;SDS011;34634;44.108;3.074;2022-10-16T00:08:25;9.90;;;3.20;;
48813;SDS011;34634;44.108;3.074;2022-10-16T00:10:52;5.07;;;3.35;;
48813;SDS011;34634;44.108;3.074;2022-10-16T00:13:18;5.50;;;3.20;;
48813;SDS011;34634;44.108;3.074;2022-10-16T00:15:46;6.03;;;3.38;;
48813;SDS011;34634;44.108;3.074;2022-10-16T00:18:12;9.15;;;3.22;;
48813;SDS011;34634;44.108;3.074;2022-10-16T00:20:39;6.88;;;3.28;;
48813;SDS011;34634;44.108;3.074;2022-10-16T00:23:06;7.45;;;3.58;;
48813;SDS011;34634;44.108;3.074;2022-10-16T00:25:33;4.53;;;3.40;;
48813;SDS011;34634;44.108;3.074;2022-10-16T00:28:00;6.60;;;3.50;;
48813;SDS011;34634;44.108;3.074;2022-10-16T00:30:26;5.40;;;3.20;;
48813;SDS011;34634;44.108;3.074;2022-10-16T00:32:54;5.88;;;3.35;;
48813;SDS011;34634;44.108;3.074;2022-10-16T00:35:20;5.90;;;3.47;;
48813;SDS011;34634;44.108;3.074;2022-10-16T00:37:47;5.97;;;3.10;;
48813;SDS011;34634;44.108;3.074;2022-10-16T00:40:13;4.53;;;2.97;;
48813;SDS011;34634;44.108;3.074;2022-10-16T00:42:39;5.15;;;3.53;;
48813;SDS011;34634;44.108;3.074;2022-10-16T00:45:06;7.10;;;3.70;;
48813;SDS011;34634;44.108;3.074;2022-10-16T00:47:34;8.63;;;3.72;;
48813;SDS011;34634;44.108;3.074;2022-10-16T00:50:08;8.52;;;3.95;;
48813;SDS011;34634;44.108;3.074;2022-10-16T00:52:35;5.78;;;2.95;;
48813;SDS011;34634;44.108;3.074;2022-10-16T00:55:03;7.93;;;3.20;;
48813;SDS011;34634;44.108;3.074;2022-10-16T00:57:30;4.70;;;3.08;;
48813;SDS011;34634;44.108;3.074;2022-10-16T00:59:57;6.00;;;3.30;;
48813;SDS011;34634;44.108;3.074;2022-10-16T01:02:24;8.40;;;3.38;;
48813;SDS011;34634;44.108;3.074;2022-10-16T01:04:50;5.80;;;3.22;;
48813;SDS011;34634;44.108;3.074;2022-10-16T01:12:40;3.92;;;2.80;;
48813;SDS011;34634;44.108;3.074;2022-10-16T01:17:51;4.45;;;2.83;;
48813;SDS011;34634;44.108;3.074;2022-10-16T01:28:01;3.30;;;2.80;;
48813;SDS011;34634;44.108;3.074;2022-10-16T01:30:29;6.72;;;3.20;;
48813;SDS011;34634;44.108;3.074;2022-10-16T01:33:01;4.40;;;2.70;;
48813;SDS011;34634;44.108;3.074;2022-10-16T01:35:36;11.02;;;3.38;;
48813;SDS011;34634;44.108;3.074;2022-10-16T01:40:29;4.10;;;3.00;;
48813;SDS011;34634;44.108;3.074;2022-10-16T01:43:03;5.88;;;2.92;;
48813;SDS011;34634;44.108;3.074;2022-10-16T01:45:31;5.95;;;2.75;;
48813;SDS011;34634;44.108;3.074;2022-10-16T01:47:58;7.55;;;2.80;;
48813;SDS011;34634;44.108;3.074;2022-10-16T01:50:26;7.05;;;2.88;;
48813;SDS011;34634;44.108;3.074;2022-10-16T01:52:52;4.20;;;2.83;;
48813;SDS011;34634;44.108;3.074;2022-10-16T01:55:24;9.25;;;2.92;;
48813;SDS011;34634;44.108;3.074;2022-10-16T01:57:52;4.60;;;2.72;;
48813;SDS011;34634;44.108;3.074;2022-10-16T02:00:19;9.02;;;2.90;;
48813;SDS011;34634;44.108;3.074;2022-10-16T02:02:47;6.97;;;2.90;;
48813;SDS011;34634;44.108;3.074;2022-10-16T02:05:18;5.68;;;3.17;;
48813;SDS011;34634;44.108;3.074;2022-10-16T02:07:47;5.85;;;2.95;;
48813;SDS011;34634;44.108;3.074;2022-10-16T02:10:13;3.42;;;2.60;;
48813;SDS011;34634;44.108;3.074;2022-10-16T02:12:40;9.68;;;2.90;;
48813;SDS011;34634;44.108;3.074;2022-10-16T02:15:08;12.77;;;3.30;;
48813;SDS011;34634;44.108;3.074;2022-10-16T02:17:35;8.55;;;3.05;;
48813;SDS011;34634;44.108;3.074;2022-10-16T02:20:01;4.82;;;2.92;;
48813;SDS011;34634;44.108;3.074;2022-10-16T02:22:49;7.43;;;2.80;;
48813;SDS011;34634;44.108;3.074;2022-10-16T02:30:09;6.43;;;2.88;;
48813;SDS011;34634;44.108;3.074;2022-10-16T02:32:38;10.98;;;3.20;;
48813;SDS011;34634;44.108;3.074;2022-10-16T02:35:06;5.47;;;3.10;;
48813;SDS011;34634;44.108;3.074;2022-10-16T02:37:33;5.43;;;2.97;;
48813;SDS011;34634;44.108;3.074;2022-10-16T02:40:00;5.20;;;2.85;;
48813;SDS011;34634;44.108;3.074;2022-10-16T02:42:35;5.40;;;3.28;;
48813;SDS011;34634;44.108;3.074;2022-10-16T02:45:02;10.38;;;3.20;;
48813;SDS011;34634;44.108;3.074;2022-10-16T02:47:28;4.00;;;3.40;;
48813;SDS011;34634;44.108;3.074;2022-10-16T02:49:55;5.45;;;3.70;;
48813;SDS011;34634;44.108;3.074;2022-10-16T02:52:21;7.25;;;3.20;;
48813;SDS011;34634;44.108;3.074;2022-10-16T02:54:48;5.85;;;3.35;;
48813;SDS011;34634;44.108;3.074;2022-10-16T02:57:14;9.20;;;3.35;;
48813;SDS011;34634;44.108;3.074;2022-10-16T02:59:40;6.43;;;2.80;;
48813;SDS011;34634;44.108;3.074;2022-10-16T03:02:07;5.35;;;3.40;;
48813;SDS011;34634;44.108;3.074;2022-10-16T03:04:33;4.10;;;3.30;;
48813;SDS011;34634;44.108;3.074;2022-10-16T03:06:59;5.85;;;2.90;;
48813;SDS011;34634;44.108;3.074;2022-10-16T03:09:26;6.10;;;3.30;;
48813;SDS011;34634;44.108;3.074;2022-10-16T03:11:52;3.90;;;2.90;;
48813;SDS011;34634;44.108;3.074;2022-10-16T03:14:18;3.72;;;2.70;;
48813;SDS011;34634;44.108;3.074;2022-10-16T03:16:45;5.30;;;2.60;;
48813;SDS011;34634;44.108;3.074;2022-10-16T03:19:11;4.93;;;3.20;;
48813;SDS011;34634;44.108;3.074;2022-10-16T03:21:37;5.60;;;3.10;;
48813;SDS011;34634;44.108;3.074;2022-10-16T03:24:04;5.85;;;3.08;;
48813;SDS011;34634;44.108;3.074;2022-10-16T03:26:30;5.97;;;2.88;;
48813;SDS011;34634;44.108;3.074;2022-10-16T03:28:57;5.28;;;3.50;;
48813;SDS011;34634;44.108;3.074;2022-10-16T03:31:23;5.22;;;3.05;;
48813;SDS011;34634;44.108;3.074;2022-10-16T03:33:49;6.80;;;3.28;;
48813;SDS011;34634;44.108;3.074;2022-10-16T03:36:16;4.82;;;3.55;;
48813;SDS011;34634;44.108;3.074;2022-10-16T03:38:42;6.03;;;3.40;;
48813;SDS011;34634;44.108;3.074;2022-10-16T03:41:08;4.63;;;3.30;;
48813;SDS011;34634;44.108;3.074;2022-10-16T03:43:35;9.18;;;3.40;;
48813;SDS011;34634;44.108;3.074;2022-10-16T03:46:01;4.88;;;3.50;;
48813;SDS011;34634;44.108;3.074;2022-10-16T03:48:27;5.97;;;4.00;;
48813;SDS011;34634;44.108;3.074;2022-10-16T03:50:53;7.78;;;3.50;;
48813;SDS011;34634;44.108;3.074;2022-10-16T03:53:20;5.32;;;3.40;;
48813;SDS011;34634;44.108;3.074;2022-10-16T03:55:46;5.93;;;3.85;;
48813;SDS011;34634;44.108;3.074;2022-10-16T03:58:13;5.93;;;3.80;;
48813;SDS011;34634;44.108;3.074;2022-10-16T04:00:43;5.10;;;3.60;;
48813;SDS011;34634;44.108;3.074;2022-10-16T04:03:10;5.53;;;3.33;;
48813;SDS011;34634;44.108;3.074;2022-10-16T04:05:37;5.43;;;3.60;;
48813;SDS011;34634;44.108;3.074;2022-10-16T04:08:04;7.15;;;3.78;;
48813;SDS011;34634;44.108;3.074;2022-10-16T04:10:30;4.32;;;3.03;;
48813;SDS011;34634;44.108;3.074;2022-10-16T04:12:56;8.10;;;3.92;;
48813;SDS011;34634;44.108;3.074;2022-10-16T04:15:23;6.35;;;3.60;;
48813;SDS011;34634;44.108;3.074;2022-10-16T04:17:50;5.93;;;3.70;;
48813;SDS011;34634;44.108;3.074;2022-10-16T04:20:17;4.70;;;3.42;;
48813;SDS011;34634;44.108;3.074;2022-10-16T04:22:43;5.22;;;3.90;;
48813;SDS011;34634;44.108;3.074;2022-10-16T04:25:10;6.80;;;3.70;;
48813;SDS011;34634;44.108;3.074;2022-10-16T04:27:37;9.85;;;3.80;;
48813;SDS011;34634;44.108;3.074;2022-10-16T04:30:04;9.15;;;3.83;;
48813;SDS011;34634;44.108;3.074;2022-10-16T04:32:30;9.40;;;3.70;;
48813;SDS011;34634;44.108;3.074;2022-10-16T04:34:57;5.80;;;3.70;;
48813;SDS011;34634;44.108;3.074;2022-10-16T04:37:26;5.85;;;4.47;;
48813;SDS011;34634;44.108;3.074;2022-10-16T04:39:53;5.95;;;3.75;;
48813;SDS011;34634;44.108;3.074;2022-10-16T04:42:20;8.32;;;4.15;;
48813;SDS011;34634;44.108;3.074;2022-10-16T04:44:46;7.95;;;4.13;;
48813;SDS011;34634;44.108;3.074;2022-10-16T04:47:12;4.05;;;3.67;;
48813;SDS011;34634;44.108;3.074;2022-10-16T04:49:39;4.90;;;3.90;;
48813;SDS011;34634;44.108;3.074;2022-10-16T04:52:06;6.25;;;3.70;;
48813;SDS011;34634;44.108;3.074;2022-10-16T04:54:34;4.50;;;3.60;;
48813;SDS011;34634;44.108;3.074;2022-10-16T04:57:01;7.93;;;3.75;;
48813;SDS011;34634;44.108;3.074;2022-10-16T04:59:27;6.00;;;3.45;;
48813;SDS011;34634;44.108;3.074;2022-10-16T05:01:53;6.35;;;3.78;;
48813;SDS011;34634;44.108;3.074;2022-10-16T05:04:20;4.68;;;3.53;;
48813;SDS011;34634;44.108;3.074;2022-10-16T05:06:47;6.35;;;3.70;;
48813;SDS011;34634;44.108;3.074;2022-10-16T05:09:13;8.00;;;4.13;;
48813;SDS011;34634;44.108;3.074;2022-10-16T05:11:40;10.63;;;3.92;;
48813;SDS011;34634;44.108;3.074;2022-10-16T05:14:06;4.22;;;3.63;;
48813;SDS011;34634;44.108;3.074;2022-10-16T05:16:32;6.72;;;3.92;;
48813;SDS011;34634;44.108;3.074;2022-10-16T05:18:59;8.60;;;4.18;;
48813;SDS011;34634;44.108;3.074;2022-10-16T05:21:25;5.20;;;3.95;;
48813;SDS011;34634;44.108;3.074;2022-10-16T05:23:52;7.47;;;3.90;;
48813;SDS011;34634;44.108;3.074;2022-10-16T05:26:20;8.90;;;4.10;;
48813;SDS011;34634;44.108;3.074;2022-10-16T05:28:46;7.53;;;4.07;;
48813;SDS011;34634;44.108;3.074;2022-10-16T05:31:14;7.88;;;4.15;;
48813;SDS011;34634;44.108;3.074;2022-10-16T05:33:40;9.65;;;4.78;;
48813;SDS011;34634;44.108;3.074;2022-10-16T05:36:07;7.38;;;4.95;;
48813;SDS011;34634;44.108;3.074;2022-10-16T05:38:35;8.05;;;4.47;;
48813;SDS011;34634;44.108;3.074;2022-10-16T05:41:02;8.68;;;4.10;;
48813;SDS011;34634;44.108;3.074;2022-10-16T05:43:28;6.50;;;4.47;;
48813;SDS011;34634;44.108;3.074;2022-10-16T05:45:59;7.78;;;4.43;;
48813;SDS011;34634;44.108;3.074;2022-10-16T05:48:26;10.02;;;4.90;;
48813;SDS011;34634;44.108;3.074;2022-10-16T05:50:56;10.68;;;4.65;;
48813;SDS011;34634;44.108;3.074;2022-10-16T05:53:22;11.77;;;4.57;;
48813;SDS011;34634;44.108;3.074;2022-10-16T05:55:56;5.10;;;3.85;;
48813;SDS011;34634;44.108;3.074;2022-10-16T05:58:23;6.72;;;4.50;;
48813;SDS011;34634;44.108;3.074;2022-10-16T06:00:56;5.63;;;4.30;;
48813;SDS011;34634;44.108;3.074;2022-10-16T06:03:23;7.47;;;4.32;;
48813;SDS011;34634;44.108;3.074;2022-10-16T06:05:50;4.68;;;4.10;;
48813;SDS011;34634;44.108;3.074;2022-10-16T06:08:16;6.57;;;4.07;;
48813;SDS011;34634;44.108;3.074;2022-10-16T06:10:43;6.03;;;4.13;;
48813;SDS011;34634;44.108;3.074;2022-10-16T06:13:10;8.68;;;4.43;;
48813;SDS011;34634;44.108;3.074;2022-10-16T06:15:37;6.20;;;4.18;;
48813;SDS011;34634;44.108;3.074;2022-10-16T06:18:04;6.22;;;4.30;;
48813;SDS011;34634;44.108;3.074;2022-10-16T06:20:31;7.53;;;4.32;;
48813;SDS011;34634;44.108;3.074;2022-10-16T06:22:57;7.63;;;4.35;;
48813;SDS011;34634;44.108;3.074;2022-10-16T06:25:23;8.63;;;4.75;;
48813;SDS011;34634;44.108;3.074;2022-10-16T06:27:50;7.75;;;4.47;;
48813;SDS011;34634;44.108;3.074;2022-10-16T06:30:16;6.45;;;4.50;;
48813;SDS011;34634;44.108;3.074;2022-10-16T06:32:42;7.30;;;4.40;;
48813;SDS011;34634;44.108;3.074;2022-10-16T06:35:09;11.98;;;4.50;;
48813;SDS011;34634;44.108;3.074;2022-10-16T06:37:35;5.13;;;4.53;;
48813;SDS011;34634;44.108;3.074;2022-10-16T06:40:01;5.68;;;4.22;;
48813;SDS011;34634;44.108;3.074;2022-10-16T06:42:29;9.10;;;4.30;;
48813;SDS011;34634;44.108;3.074;2022-10-16T06:44:56;9.93;;;4.57;;
48813;SDS011;34634;44.108;3.074;2022-10-16T06:47:22;8.82;;;4.70;;
48813;SDS011;34634;44.108;3.074;2022-10-16T06:49:49;5.65;;;4.20;;
48813;SDS011;34634;44.108;3.074;2022-10-16T06:52:15;10.15;;;4.60;;
48813;SDS011;34634;44.108;3.074;2022-10-16T06:54:41;7.97;;;4.70;;
48813;SDS011;34634;44.108;3.074;2022-10-16T06:57:07;6.88;;;4.30;;
48813;SDS011;34634;44.108;3.074;2022-10-16T06:59:34;7.78;;;4.18;;
48813;SDS011;34634;44.108;3.074;2022-10-16T07:02:00;6.65;;;4.15;;
48813;SDS011;34634;44.108;3.074;2022-10-16T07:04:26;9.23;;;4.78;;
48813;SDS011;34634;44.108;3.074;2022-10-16T07:06:53;5.18;;;4.45;;
48813;SDS011;34634;44.108;3.074;2022-10-16T07:09:19;9.20;;;4.65;;
48813;SDS011;34634;44.108;3.074;2022-10-16T07:11:45;9.52;;;4.50;;
48813;SDS011;34634;44.108;3.074;2022-10-16T07:14:16;7.50;;;5.05;;
48813;SDS011;34634;44.108;3.074;2022-10-16T07:19:09;9.10;;;5.97;;
48813;SDS011;34634;44.108;3.074;2022-10-16T07:21:37;7.53;;;5.55;;
48813;SDS011;34634;44.108;3.074;2022-10-16T07:24:10;11.82;;;6.10;;
48813;SDS011;34634;44.108;3.074;2022-10-16T07:26:37;8.18;;;4.80;;
48813;SDS011;34634;44.108;3.074;2022-10-16T07:29:08;13.00;;;4.93;;
48813;SDS011;34634;44.108;3.074;2022-10-16T07:31:37;13.43;;;5.13;;
48813;SDS011;34634;44.108;3.074;2022-10-16T07:34:04;7.28;;;4.55;;
48813;SDS011;34634;44.108;3.074;2022-10-16T07:36:30;6.80;;;4.35;;
48813;SDS011;34634;44.108;3.074;2022-10-16T07:38:56;9.75;;;4.50;;
48813;SDS011;34634;44.108;3.074;2022-10-16T07:41:23;8.63;;;3.67;;
48813;SDS011;34634;44.108;3.074;2022-10-16T07:43:50;6.65;;;3.30;;
48813;SDS011;34634;44.108;3.074;2022-10-16T07:46:17;10.95;;;3.55;;
48813;SDS011;34634;44.108;3.074;2022-10-16T07:48:44;8.52;;;3.53;;
48813;SDS011;34634;44.108;3.074;2022-10-16T07:51:12;10.38;;;3.25;;
48813;SDS011;34634;44.108;3.074;2022-10-16T07:53:39;7.18;;;3.08;;
48813;SDS011;34634;44.108;3.074;2022-10-16T07:56:06;5.18;;;2.90;;
48813;SDS011;34634;44.108;3.074;2022-10-16T07:58:33;8.90;;;2.67;;
48813;SDS011;34634;44.108;3.074;2022-10-16T08:01:06;4.60;;;2.60;;
48813;SDS011;34634;44.108;3.074;2022-10-16T08:03:32;6.38;;;3.00;;
48813;SDS011;34634;44.108;3.074;2022-10-16T08:05:59;8.48;;;2.58;;
48813;SDS011;34634;44.108;3.074;2022-10-16T08:08:26;5.85;;;2.65;;
48813;SDS011;34634;44.108;3.074;2022-10-16T08:10:53;4.10;;;2.30;;
48813;SDS011;34634;44.108;3.074;2022-10-16T08:13:19;6.10;;;2.67;;
48813;SDS011;34634;44.108;3.074;2022-10-16T08:15:46;6.45;;;2.47;;
48813;SDS011;34634;44.108;3.074;2022-10-16T08:18:13;3.92;;;2.50;;
48813;SDS011;34634;44.108;3.074;2022-10-16T08:20:40;7.85;;;2.90;;
48813;SDS011;34634;44.108;3.074;2022-10-16T08:23:06;5.28;;;2.28;;
48813;SDS011;34634;44.108;3.074;2022-10-16T08:25:36;6.13;;;2.50;;
48813;SDS011;34634;44.108;3.074;2022-10-16T08:28:03;5.93;;;2.42;;
48813;SDS011;34634;44.108;3.074;2022-10-16T08:30:30;7.47;;;2.10;;
48813;SDS011;34634;44.108;3.074;2022-10-16T08:32:57;4.05;;;2.30;;
48813;SDS011;34634;44.108;3.074;2022-10-16T08:35:23;3.60;;;2.20;;
48813;SDS011;34634;44.108;3.074;2022-10-16T08:37:50;4.80;;;2.10;;
48813;SDS011;34634;44.108;3.074;2022-10-16T08:40:18;4.35;;;2.20;;
48813;SDS011;34634;44.108;3.074;2022-10-16T08:50:32;6.50;;;2.47;;
48813;SDS011;34634;44.108;3.074;2022-10-16T08:53:02;7.32;;;2.30;;
48813;SDS011;34634;44.108;3.074;2022-10-16T08:55:43;5.97;;;2.10;;
48813;SDS011;34634;44.108;3.074;2022-10-16T08:58:21;4.20;;;2.40;;
48813;SDS011;34634;44.108;3.074;2022-10-16T09:00:49;5.88;;;2.10;;
48813;SDS011;34634;44.108;3.074;2022-10-16T09:14:38;13.85;;;2.15;;
48813;SDS011;34634;44.108;3.074;2022-10-16T09:16:42;5.10;;;2.67;;
48813;SDS011;34634;44.108;3.074;2022-10-16T09:19:16;5.40;;;2.38;;
48813;SDS011;34634;44.108;3.074;2022-10-16T09:21:44;6.65;;;2.30;;
48813;SDS011;34634;44.108;3.074;2022-10-16T09:26:37;5.43;;;2.22;;
48813;SDS011;34634;44.108;3.074;2022-10-16T09:29:03;5.28;;;2.30;;
48813;SDS011;34634;44.108;3.074;2022-10-16T09:31:29;7.15;;;2.47;;
48813;SDS011;34634;44.108;3.074;2022-10-16T09:33:59;6.35;;;2.45;;
48813;SDS011;34634;44.108;3.074;2022-10-16T09:36:29;6.65;;;2.30;;
48813;SDS011;34634;44.108;3.074;2022-10-16T09:39:04;7.70;;;2.72;;
48813;SDS011;34634;44.108;3.074;2022-10-16T09:41:33;6.22;;;2.22;;
48813;SDS011;34634;44.108;3.074;2022-10-16T09:44:00;3.05;;;1.83;;
48813;SDS011;34634;44.108;3.074;2022-10-16T09:46:29;8.43;;;2.28;;
48813;SDS011;34634;44.108;3.074;2022-10-16T09:48:57;5.32;;;2.28;;
48813;SDS011;34634;44.108;3.074;2022-10-16T09:51:33;5.05;;;1.98;;
48813;SDS011;34634;44.108;3.074;2022-10-16T09:54:02;7.05;;;2.20;;
48813;SDS011;34634;44.108;3.074;2022-10-16T09:56:38;5.20;;;2.20;;
48813;SDS011;34634;44.108;3.074;2022-10-16T09:59:17;5.05;;;2.42;;
48813;SDS011;34634;44.108;3.074;2022-10-16T10:04:13;6.30;;;2.00;;
48813;SDS011;34634;44.108;3.074;2022-10-16T10:06:46;5.55;;;2.08;;
48813;SDS011;34634;44.108;3.074;2022-10-16T10:11:44;4.93;;;2.22;;
48813;SDS011;34634;44.108;3.074;2022-10-16T10:16:47;5.30;;;2.35;;
48813;SDS011;34634;44.108;3.074;2022-10-16T10:19:21;5.10;;;1.70;;
48813;SDS011;34634;44.108;3.074;2022-10-16T10:21:47;4.40;;;1.75;;
48813;SDS011;34634;44.108;3.074;2022-10-16T10:24:15;12.27;;;1.88;;
48813;SDS011;34634;44.108;3.074;2022-10-16T10:26:44;5.75;;;1.90;;
48813;SDS011;34634;44.108;3.074;2022-10-16T10:36:47;8.30;;;2.58;;
48813;SDS011;34634;44.108;3.074;2022-10-16T10:39:50;6.77;;;1.60;;
48813;SDS011;34634;44.108;3.074;2022-10-16T10:45:11;4.63;;;1.75;;
48813;SDS011;34634;44.108;3.074;2022-10-16T10:53:14;6.90;;;2.17;;
48813;SDS011;34634;44.108;3.074;2022-10-16T10:55:45;4.25;;;1.83;;
48813;SDS011;34634;44.108;3.074;2022-10-16T11:03:19;7.22;;;2.20;;
48813;SDS011;34634;44.108;3.074;2022-10-16T11:05:56;7.20;;;2.00;;
48813;SDS011;34634;44.108;3.074;2022-10-16T11:13:53;6.13;;;1.90;;
48813;SDS011;34634;44.108;3.074;2022-10-16T11:16:43;6.22;;;2.15;;
48813;SDS011;34634;44.108;3.074;2022-10-16T11:22:03;6.80;;;2.20;;
48813;SDS011;34634;44.108;3.074;2022-10-16T11:24:41;8.35;;;1.92;;
48813;SDS011;34634;44.108;3.074;2022-10-16T11:27:10;9.55;;;2.20;;
48813;SDS011;34634;44.108;3.074;2022-10-16T11:29:41;5.22;;;1.92;;
48813;SDS011;34634;44.108;3.074;2022-10-16T11:32:18;6.00;;;2.03;;
48813;SDS011;34634;44.108;3.074;2022-10-16T11:34:50;6.32;;;1.88;;
48813;SDS011;34634;44.108;3.074;2022-10-16T11:37:19;5.43;;;1.95;;
48813;SDS011;34634;44.108;3.074;2022-10-16T11:39:46;10.05;;;2.20;;
48813;SDS011;34634;44.108;3.074;2022-10-16T11:42:27;5.50;;;2.08;;
48813;SDS011;34634;44.108;3.074;2022-10-16T11:47:35;4.70;;;2.10;;
48813;SDS011;34634;44.108;3.074;2022-10-16T11:50:17;8.18;;;2.47;;
48813;SDS011;34634;44.108;3.074;2022-10-16T11:55:18;7.40;;;1.75;;
48813;SDS011;34634;44.108;3.074;2022-10-16T11:57:47;8.30;;;2.25;;
48813;SDS011;34634;44.108;3.074;2022-10-16T12:00:22;6.97;;;2.13;;
48813;SDS011;34634;44.108;3.074;2022-10-16T12:03:10;7.38;;;2.40;;
48813;SDS011;34634;44.108;3.074;2022-10-16T12:08:23;6.90;;;2.40;;
48813;SDS011;34634;44.108;3.074;2022-10-16T12:10:49;7.20;;;2.10;;
48813;SDS011;34634;44.108;3.074;2022-10-16T12:16:07;7.38;;;2.08;;
48813;SDS011;34634;44.108;3.074;2022-10-16T12:18:46;5.47;;;2.20;;
48813;SDS011;34634;44.108;3.074;2022-10-16T12:21:13;5.63;;;2.00;;
48813;SDS011;34634;44.108;3.074;2022-10-16T12:26:30;7.40;;;2.40;;
48813;SDS011;34634;44.108;3.074;2022-10-16T12:29:09;5.93;;;2.58;;
48813;SDS011;34634;44.108;3.074;2022-10-16T12:31:37;7.40;;;2.10;;
48813;SDS011;34634;44.108;3.074;2022-10-16T12:34:05;8.88;;;2.17;;
48813;SDS011;34634;44.108;3.074;2022-10-16T12:36:32;6.20;;;2.10;;
48813;SDS011;34634;44.108;3.074;2022-10-16T12:38:59;7.18;;;2.00;;
48813;SDS011;34634;44.108;3.074;2022-10-16T12:41:28;6.05;;;2.08;;
48813;SDS011;34634;44.108;3.074;2022-10-16T12:43:54;8.63;;;2.28;;
48813;SDS011;34634;44.108;3.074;2022-10-16T12:46:39;9.35;;;2.33;;
48813;SDS011;34634;44.108;3.074;2022-10-16T12:51:38;8.50;;;2.10;;
48813;SDS011;34634;44.108;3.074;2022-10-16T12:56:35;10.02;;;2.30;;
48813;SDS011;34634;44.108;3.074;2022-10-16T12:59:05;7.95;;;2.65;;
48813;SDS011;34634;44.108;3.074;2022-10-16T13:09:51;6.03;;;1.92;;
48813;SDS011;34634;44.108;3.074;2022-10-16T13:19:56;6.63;;;1.80;;
48813;SDS011;34634;44.108;3.074;2022-10-16T13:24:58;7.93;;;1.92;;
48813;SDS011;34634;44.108;3.074;2022-10-16T13:27:45;6.75;;;2.60;;
48813;SDS011;34634;44.108;3.074;2022-10-16T13:30:18;5.95;;;1.70;;
48813;SDS011;34634;44.108;3.074;2022-10-16T13:35:46;7.57;;;1.90;;
48813;SDS011;34634;44.108;3.074;2022-10-16T13:38:12;7.10;;;1.70;;
48813;SDS011;34634;44.108;3.074;2022-10-16T13:40:52;10.10;;;2.63;;
48813;SDS011;34634;44.108;3.074;2022-10-16T13:43:19;11.55;;;2.28;;
48813;SDS011;34634;44.108;3.074;2022-10-16T13:45:52;6.10;;;2.10;;
48813;SDS011;34634;44.108;3.074;2022-10-16T13:48:19;6.00;;;2.15;;
48813;SDS011;34634;44.108;3.074;2022-10-16T13:50:45;5.70;;;1.70;;
48813;SDS011;34634;44.108;3.074;2022-10-16T13:53:12;5.28;;;1.90;;
48813;SDS011;34634;44.108;3.074;2022-10-16T13:55:39;6.55;;;2.20;;
48813;SDS011;34634;44.108;3.074;2022-10-16T13:58:10;6.38;;;2.08;;
48813;SDS011;34634;44.108;3.074;2022-10-16T14:00:37;7.70;;;2.22;;
48813;SDS011;34634;44.108;3.074;2022-10-16T14:03:04;7.90;;;1.73;;
48813;SDS011;34634;44.108;3.074;2022-10-16T14:05:31;5.65;;;1.73;;
48813;SDS011;34634;44.108;3.074;2022-10-16T14:07:58;3.90;;;1.63;;
48813;SDS011;34634;44.108;3.074;2022-10-16T14:10:29;9.32;;;2.15;;
48813;SDS011;34634;44.108;3.074;2022-10-16T14:12:56;6.93;;;1.92;;
48813;SDS011;34634;44.108;3.074;2022-10-16T14:15:23;3.50;;;1.60;;
48813;SDS011;34634;44.108;3.074;2022-10-16T14:17:50;6.15;;;1.90;;
48813;SDS011;34634;44.108;3.074;2022-10-16T14:20:18;7.28;;;2.33;;
48813;SDS011;34634;44.108;3.074;2022-10-16T14:22:45;3.15;;;1.70;;
48813;SDS011;34634;44.108;3.074;2022-10-16T14:28:03;8.30;;;2.00;;
48813;SDS011;34634;44.108;3.074;2022-10-16T14:30:30;8.88;;;2.00;;
48813;SDS011;34634;44.108;3.074;2022-10-16T14:33:05;4.43;;;1.85;;
48813;SDS011;34634;44.108;3.074;2022-10-16T14:35:32;3.88;;;1.58;;
48813;SDS011;34634;44.108;3.074;2022-10-16T14:37:59;5.68;;;2.03;;
48813;SDS011;34634;44.108;3.074;2022-10-16T14:40:27;7.57;;;1.90;;
48813;SDS011;34634;44.108;3.074;2022-10-16T14:42:54;5.90;;;1.90;;
48813;SDS011;34634;44.108;3.074;2022-10-16T14:45:24;7.30;;;2.10;;
48813;SDS011;34634;44.108;3.074;2022-10-16T14:48:14;6.82;;;1.45;;
48813;SDS011;34634;44.108;3.074;2022-10-16T14:50:38;7.88;;;2.25;;
48813;SDS011;34634;44.108;3.074;2022-10-16T14:53:08;5.07;;;2.00;;
48813;SDS011;34634;44.108;3.074;2022-10-16T14:55:37;5.43;;;2.00;;
48813;SDS011;34634;44.108;3.074;2022-10-16T14:58:04;5.25;;;2.05;;
48813;SDS011;34634;44.108;3.074;2022-10-16T15:00:30;4.90;;;1.60;;
48813;SDS011;34634;44.108;3.074;2022-10-16T15:02:57;8.18;;;2.28;;
48813;SDS011;34634;44.108;3.074;2022-10-16T15:05:24;8.52;;;2.10;;
48813;SDS011;34634;44.108;3.074;2022-10-16T15:07:51;7.05;;;1.95;;
48813;SDS011;34634;44.108;3.074;2022-10-16T15:10:19;6.93;;;2.00;;
48813;SDS011;34634;44.108;3.074;2022-10-16T15:12:45;6.75;;;1.52;;
48813;SDS011;34634;44.108;3.074;2022-10-16T15:15:20;5.07;;;1.58;;
48813;SDS011;34634;44.108;3.074;2022-10-16T15:17:49;9.90;;;1.80;;
48813;SDS011;34634;44.108;3.074;2022-10-16T15:20:21;3.58;;;1.63;;
48813;SDS011;34634;44.108;3.074;2022-10-16T15:22:48;7.47;;;1.92;;
48813;SDS011;34634;44.108;3.074;2022-10-16T15:25:27;6.00;;;1.70;;
48813;SDS011;34634;44.108;3.074;2022-10-16T15:27:54;6.28;;;2.30;;
48813;SDS011;34634;44.108;3.074;2022-10-16T15:30:21;5.03;;;1.67;;
48813;SDS011;34634;44.108;3.074;2022-10-16T15:32:47;9.48;;;2.42;;
48813;SDS011;34634;44.108;3.074;2022-10-16T15:35:13;4.97;;;2.00;;
48813;SDS011;34634;44.108;3.074;2022-10-16T15:37:40;3.78;;;1.77;;
48813;SDS011;34634;44.108;3.074;2022-10-16T15:40:06;4.38;;;1.65;;
48813;SDS011;34634;44.108;3.074;2022-10-16T15:42:32;8.45;;;1.85;;
48813;SDS011;34634;44.108;3.074;2022-10-16T15:44:59;4.10;;;2.00;;
48813;SDS011;34634;44.108;3.074;2022-10-16T15:47:25;6.43;;;1.83;;
48813;SDS011;34634;44.108;3.074;2022-10-16T15:49:51;7.43;;;1.70;;
48813;SDS011;34634;44.108;3.074;2022-10-16T15:52:18;4.47;;;1.70;;
48813;SDS011;34634;44.108;3.074;2022-10-16T15:54:44;6.22;;;2.00;;
48813;SDS011;34634;44.108;3.074;2022-10-16T15:57:11;5.40;;;1.85;;
48813;SDS011;34634;44.108;3.074;2022-10-16T15:59:37;4.35;;;1.90;;
48813;SDS011;34634;44.108;3.074;2022-10-16T16:02:03;7.35;;;1.77;;
48813;SDS011;34634;44.108;3.074;2022-10-16T16:04:30;4.40;;;1.70;;
48813;SDS011;34634;44.108;3.074;2022-10-16T16:06:56;6.43;;;1.98;;
48813;SDS011;34634;44.108;3.074;2022-10-16T16:09:22;4.25;;;1.58;;
48813;SDS011;34634;44.108;3.074;2022-10-16T16:11:49;5.38;;;1.75;;
48813;SDS011;34634;44.108;3.074;2022-10-16T16:14:17;7.22;;;1.70;;
48813;SDS011;34634;44.108;3.074;2022-10-16T16:16:44;6.78;;;2.13;;
48813;SDS011;34634;44.108;3.074;2022-10-16T16:19:10;4.65;;;1.80;;
48813;SDS011;34634;44.108;3.074;2022-10-16T16:21:36;6.15;;;1.58;;
48813;SDS011;34634;44.108;3.074;2022-10-16T16:24:03;3.45;;;1.70;;
48813;SDS011;34634;44.108;3.074;2022-10-16T16:26:33;10.02;;;1.90;;
48813;SDS011;34634;44.108;3.074;2022-10-16T16:29:02;10.18;;;2.15;;
48813;SDS011;34634;44.108;3.074;2022-10-16T16:31:29;6.30;;;1.77;;
48813;SDS011;34634;44.108;3.074;2022-10-16T16:33:56;3.40;;;2.00;;
48813;SDS011;34634;44.108;3.074;2022-10-16T16:36:23;6.45;;;2.22;;
48813;SDS011;34634;44.108;3.074;2022-10-16T16:38:50;4.15;;;1.75;;
48813;SDS011;34634;44.108;3.074;2022-10-16T16:41:17;9.40;;;2.00;;
48813;SDS011;34634;44.108;3.074;2022-10-16T16:43:44;3.45;;;1.80;;
48813;SDS011;34634;44.108;3.074;2022-10-16T16:46:12;6.18;;;1.70;;
48813;SDS011;34634;44.108;3.074;2022-10-16T16:48:39;6.47;;;1.77;;
48813;SDS011;34634;44.108;3.074;2022-10-16T16:51:09;4.30;;;1.70;;
48813;SDS011;34634;44.108;3.074;2022-10-16T16:53:45;5.13;;;1.75;;
48813;SDS011;34634;44.108;3.074;2022-10-16T16:56:12;3.70;;;1.67;;
48813;SDS011;34634;44.108;3.074;2022-10-16T16:58:38;4.65;;;1.83;;
48813;SDS011;34634;44.108;3.074;2022-10-16T17:01:05;3.63;;;1.83;;